createdAt,value
2022-08-28T00:01:21.397Z,17.40
2022-08-28T00:03:53.719Z,17.50
2022-08-28T00:06:26.183Z,19.00
2022-08-28T00:08:58.349Z,17.50
2022-08-28T00:11:30.147Z,17.40
2022-08-28T00:14:04.371Z,17.50
2022-08-28T00:16:36.947Z,17.50
2022-08-28T00:19:11.342Z,17.50
2022-08-28T00:21:43.368Z,17.40
2022-08-28T00:24:16.249Z,17.40
2022-08-28T00:27:07.133Z,17.40
2022-08-28T00:29:39.072Z,17.40
2022-08-28T00:32:11.744Z,17.50
2022-08-28T00:34:43.554Z,17.50
2022-08-28T00:37:16.613Z,17.50
2022-08-28T00:39:49.740Z,17.40
2022-08-28T00:42:21.729Z,17.40
2022-08-28T00:44:54.360Z,17.40
2022-08-28T00:47:26.604Z,17.30
2022-08-28T00:49:59.188Z,17.20
2022-08-28T00:52:31.014Z,17.20
2022-08-28T00:55:09.077Z,17.20
2022-08-28T00:57:49.201Z,17.20
2022-08-28T01:00:26.857Z,17.20
2022-08-28T01:02:59.710Z,17.20
2022-08-28T01:05:34.156Z,17.20
2022-08-28T01:08:06.776Z,17.20
2022-08-28T01:10:40.295Z,17.10
2022-08-28T01:13:13.265Z,17.10
2022-08-28T01:15:46.756Z,17.10
2022-08-28T01:18:20.503Z,17.10
2022-08-28T01:21:05.888Z,17.10
2022-08-28T01:23:53.723Z,17.10
2022-08-28T01:26:28.627Z,17.20
2022-08-28T01:29:01.437Z,17.10
2022-08-28T01:31:35.104Z,17.20
2022-08-28T01:34:09.360Z,17.10
2022-08-28T01:36:43.080Z,17.10
2022-08-28T01:39:19.108Z,17.10
2022-08-28T01:41:54.963Z,17.10
2022-08-28T01:44:28.089Z,17.10
2022-08-28T01:47:00.650Z,17.00
2022-08-28T01:49:32.963Z,17.00
2022-08-28T01:52:04.862Z,17.00
2022-08-28T01:54:40.171Z,17.20
2022-08-28T01:57:12.642Z,16.90
2022-08-28T01:59:46.640Z,16.90
2022-08-28T02:02:18.464Z,16.80
2022-08-28T02:04:51.124Z,16.80
2022-08-28T02:07:23.572Z,16.80
2022-08-28T02:09:55.934Z,16.80
2022-08-28T02:12:28.647Z,16.80
2022-08-28T02:15:00.915Z,16.80
2022-08-28T02:17:33.036Z,16.80
2022-08-28T02:20:07.205Z,16.70
2022-08-28T02:22:39.288Z,16.70
2022-08-28T02:25:13.039Z,16.70
2022-08-28T02:27:45.795Z,16.60
2022-08-28T02:30:18.881Z,16.60
2022-08-28T02:32:51.305Z,16.50
2022-08-28T02:35:24.497Z,16.40
2022-08-28T02:37:56.783Z,16.50
2022-08-28T02:40:30.085Z,16.60
2022-08-28T02:43:01.946Z,16.60
2022-08-28T02:45:34.659Z,16.60
2022-08-28T02:48:17.009Z,16.60
2022-08-28T02:50:50.254Z,16.60
2022-08-28T02:53:22.552Z,16.60
2022-08-28T02:55:56.034Z,16.50
2022-08-28T02:58:27.892Z,16.50
2022-08-28T03:01:02.162Z,16.50
2022-08-28T03:03:34.955Z,16.50
2022-08-28T03:06:08.997Z,16.40
2022-08-28T03:08:42.719Z,16.40
2022-08-28T03:11:14.800Z,16.40
2022-08-28T03:13:47.590Z,16.30
2022-08-28T03:16:19.597Z,16.30
2022-08-28T03:18:52.652Z,16.20
2022-08-28T03:21:24.552Z,16.20
2022-08-28T03:23:57.168Z,16.20
2022-08-28T03:26:29.673Z,16.20
2022-08-28T03:29:02.323Z,16.30
2022-08-28T03:31:35.883Z,16.30
2022-08-28T03:34:09.230Z,16.30
2022-08-28T03:36:41.416Z,16.30
2022-08-28T03:41:46.100Z,16.30
2022-08-28T03:44:18.946Z,16.40
2022-08-28T03:46:51.501Z,16.30
2022-08-28T03:49:24.346Z,16.30
2022-08-28T03:51:56.820Z,16.30
2022-08-28T03:54:31.492Z,16.20
2022-08-28T03:57:04.331Z,16.20
2022-08-28T03:59:36.035Z,16.10
2022-08-28T04:02:08.613Z,16.10
2022-08-28T04:04:40.829Z,16.10
2022-08-28T04:07:12.920Z,16.00
2022-08-28T04:09:46.091Z,16.00
2022-08-28T04:12:19.072Z,16.00
2022-08-28T04:14:50.920Z,16.00
2022-08-28T04:17:23.751Z,16.00
2022-08-28T04:19:55.953Z,16.00
2022-08-28T04:22:30.098Z,16.00
2022-08-28T04:25:02.025Z,16.00
2022-08-28T04:27:35.429Z,16.10
2022-08-28T04:30:09.699Z,15.90
2022-08-28T04:32:42.865Z,15.90
2022-08-28T04:35:17.133Z,15.90
2022-08-28T04:37:50.091Z,15.90
2022-08-28T04:40:22.773Z,16.00
2022-08-28T04:42:54.985Z,16.00
2022-08-28T04:45:27.211Z,16.00
2022-08-28T04:48:00.198Z,16.10
2022-08-28T04:50:36.762Z,16.10
2022-08-28T04:53:12.820Z,16.10
2022-08-28T04:55:54.243Z,16.00
2022-08-28T04:58:28.268Z,15.90
2022-08-28T05:01:12.764Z,15.80
2022-08-28T05:03:47.341Z,15.90
2022-08-28T05:06:19.235Z,15.90
2022-08-28T05:08:51.894Z,15.90
2022-08-28T05:11:33.778Z,15.90
2022-08-28T05:14:15.966Z,16.00
2022-08-28T05:16:51.251Z,16.10
2022-08-28T05:19:26.243Z,16.20
2022-08-28T05:21:59.021Z,16.20
2022-08-28T05:24:31.692Z,16.20
2022-08-28T05:27:04.112Z,16.20
2022-08-28T05:29:35.906Z,16.30
2022-08-28T05:32:09.390Z,16.30
2022-08-28T05:34:42.077Z,16.40
2022-08-28T05:37:19.069Z,16.40
2022-08-28T05:39:51.503Z,16.40
2022-08-28T05:42:24.122Z,16.50
2022-08-28T05:45:02.581Z,16.60
2022-08-28T05:47:36.108Z,16.60
2022-08-28T05:50:08.670Z,16.70
2022-08-28T05:52:43.048Z,16.80
2022-08-28T05:55:14.855Z,16.90
2022-08-28T05:57:47.469Z,16.90
2022-08-28T06:00:19.800Z,17.10
2022-08-28T06:02:51.555Z,17.10
2022-08-28T06:05:25.255Z,17.20
2022-08-28T06:07:58.040Z,17.20
2022-08-28T06:10:30.652Z,17.20
2022-08-28T06:13:03.222Z,17.20
2022-08-28T06:15:40.908Z,18.10
2022-08-28T06:18:14.458Z,17.40
2022-08-28T06:20:47.415Z,17.40
2022-08-28T06:23:24.049Z,17.50
2022-08-28T06:25:57.220Z,17.50
2022-08-28T06:28:29.015Z,17.60
2022-08-28T06:31:22.913Z,17.50
2022-08-28T06:33:58.844Z,17.60
2022-08-28T06:36:34.818Z,17.80
2022-08-28T06:39:07.140Z,17.90
2022-08-28T06:41:42.898Z,17.80
2022-08-28T06:44:25.778Z,17.80
2022-08-28T06:46:58.100Z,17.80
2022-08-28T06:49:30.783Z,17.60
2022-08-28T06:52:02.582Z,17.70
2022-08-28T06:54:35.487Z,17.90
2022-08-28T06:57:07.282Z,18.00
2022-08-28T06:59:40.740Z,18.20
2022-08-28T07:02:12.586Z,18.30
2022-08-28T07:04:45.199Z,18.30
2022-08-28T07:07:31.796Z,18.40
2022-08-28T07:10:05.805Z,18.50
2022-08-28T07:12:37.635Z,18.50
2022-08-28T07:15:12.853Z,18.50
2022-08-28T07:17:45.513Z,18.60
2022-08-28T07:20:18.228Z,18.70
2022-08-28T07:22:54.045Z,18.90
2022-08-28T07:25:32.659Z,18.80
2022-08-28T07:28:04.829Z,18.90
2022-08-28T07:30:37.124Z,18.90
2022-08-28T07:33:08.922Z,18.90
2022-08-28T07:35:44.647Z,18.80
2022-08-28T07:38:17.073Z,18.90
2022-08-28T07:40:49.792Z,19.20
2022-08-28T07:43:40.401Z,19.60
2022-08-28T07:46:13.256Z,20.40
2022-08-28T07:48:47.975Z,21.40
2022-08-28T07:51:20.768Z,22.50
2022-08-28T07:56:29.972Z,22.60
2022-08-28T07:59:03.226Z,22.40
2022-08-28T08:01:42.208Z,23.20
2022-08-28T08:04:16.205Z,23.20
2022-08-28T08:06:54.383Z,23.70
2022-08-28T08:09:29.581Z,23.70
2022-08-28T08:12:02.318Z,23.70
2022-08-28T08:14:34.961Z,24.00
2022-08-28T08:17:07.645Z,24.30
2022-08-28T08:19:40.699Z,24.30
2022-08-28T08:22:12.953Z,24.60
2022-08-28T08:24:44.717Z,24.60
2022-08-28T08:27:17.836Z,26.30
2022-08-28T08:29:51.382Z,25.40
2022-08-28T08:32:23.671Z,24.80
2022-08-28T08:34:56.104Z,25.30
2022-08-28T08:37:28.661Z,25.40
2022-08-28T08:40:00.536Z,25.00
2022-08-28T08:42:35.063Z,24.60
2022-08-28T08:45:12.615Z,24.50
2022-08-28T08:47:54.340Z,24.60
2022-08-28T08:50:29.871Z,24.20
2022-08-28T08:54:04.575Z,24.00
2022-08-28T08:56:36.527Z,23.40
2022-08-28T08:59:16.158Z,22.80
2022-08-28T09:02:06.471Z,22.30
2022-08-28T09:04:48.424Z,22.50
2022-08-28T09:07:21.444Z,22.60
2022-08-28T09:09:55.986Z,22.50
2022-08-28T09:12:37.067Z,22.60
2022-08-28T09:15:20.809Z,22.70
2022-08-28T09:18:17.383Z,22.90
2022-08-28T09:20:55.204Z,23.40
2022-08-28T09:23:30.132Z,23.50
2022-08-28T09:26:10.621Z,25.00
2022-08-28T09:28:51.129Z,25.50
2022-08-28T09:31:36.109Z,26.40
2022-08-28T09:34:29.009Z,25.60
2022-08-28T09:37:01.865Z,25.00
2022-08-28T09:39:38.155Z,24.60
2022-08-28T09:42:41.773Z,24.90
2022-08-28T09:45:20.948Z,24.60
2022-08-28T09:47:56.238Z,24.60
2022-08-28T09:50:41.191Z,25.60
2022-08-28T09:53:15.876Z,25.80
2022-08-28T09:55:57.366Z,26.70
2022-08-28T09:58:43.837Z,27.50
2022-08-28T10:01:37.187Z,26.80
2022-08-28T10:04:20.139Z,26.70
2022-08-28T10:07:03.877Z,26.60
2022-08-28T10:10:02.539Z,27.50
2022-08-28T10:12:42.262Z,27.00
2022-08-28T10:15:51.760Z,25.90
2022-08-28T10:18:45.785Z,25.20
2022-08-28T10:21:50.686Z,24.90
2022-08-28T10:24:34.051Z,25.00
2022-08-28T10:27:20.248Z,25.40
2022-08-28T10:30:21.131Z,25.50
2022-08-28T10:33:20.647Z,25.40
2022-08-28T10:36:34.287Z,25.10
2022-08-28T10:39:33.173Z,25.60
2022-08-28T10:42:06.899Z,26.00
2022-08-28T10:44:54.144Z,26.40
2022-08-28T10:47:29.854Z,26.50
2022-08-28T10:50:12.399Z,26.60
2022-08-28T10:52:53.896Z,26.40
2022-08-28T10:55:36.589Z,26.10
2022-08-28T10:58:24.613Z,26.20
2022-08-28T11:01:03.692Z,26.30
2022-08-28T11:03:43.332Z,25.80
2022-08-28T11:06:27.038Z,25.70
2022-08-28T11:09:24.862Z,26.60
2022-08-28T11:12:17.070Z,27.30
2022-08-28T11:14:53.673Z,26.70
2022-08-28T11:17:28.032Z,26.70
2022-08-28T11:20:25.456Z,26.20
2022-08-28T11:23:10.556Z,27.00
2022-08-28T11:25:59.164Z,26.90
2022-08-28T11:28:42.568Z,27.40
2022-08-28T11:31:19.272Z,27.00
2022-08-28T11:34:03.036Z,27.80
2022-08-28T11:36:34.787Z,28.20
2022-08-28T11:39:21.011Z,27.70
2022-08-28T11:42:11.292Z,27.10
2022-08-28T11:44:46.352Z,27.30
2022-08-28T11:47:39.493Z,27.10
2022-08-28T11:50:32.826Z,27.90
2022-08-28T11:53:25.273Z,28.90
2022-08-28T11:56:03.946Z,28.40
2022-08-28T11:58:54.909Z,28.90
2022-08-28T12:01:32.056Z,28.40
2022-08-28T12:04:08.720Z,29.00
2022-08-28T12:06:51.448Z,28.90
2022-08-28T12:09:26.236Z,28.70
2022-08-28T12:12:03.690Z,28.10
2022-08-28T12:14:41.478Z,28.40
2022-08-28T12:17:29.152Z,28.80
2022-08-28T12:20:20.644Z,29.80
2022-08-28T12:22:58.751Z,29.70
2022-08-28T12:25:40.480Z,30.30
2022-08-28T12:28:25.022Z,29.70
2022-08-28T12:30:59.896Z,29.50
2022-08-28T12:33:47.716Z,29.10
2022-08-28T12:36:26.598Z,28.90
2022-08-28T12:38:59.344Z,29.30
2022-08-28T12:41:33.098Z,29.40
2022-08-28T12:44:09.385Z,29.40
2022-08-28T12:46:43.934Z,29.60
2022-08-28T12:49:35.035Z,29.20
2022-08-28T12:52:27.219Z,29.20
2022-08-28T12:55:00.018Z,29.10
2022-08-28T12:57:33.812Z,28.90
2022-08-28T13:00:10.695Z,28.80
2022-08-28T13:02:46.504Z,28.80
2022-08-28T13:05:32.393Z,28.70
2022-08-28T13:08:08.842Z,28.90
2022-08-28T13:10:47.622Z,28.90
2022-08-28T13:13:23.341Z,28.70
2022-08-28T13:16:01.482Z,29.00
2022-08-28T13:18:48.114Z,28.90
2022-08-28T13:21:30.782Z,28.70
2022-08-28T13:24:43.865Z,29.00
2022-08-28T13:27:15.764Z,28.70
2022-08-28T13:30:08.987Z,29.00
2022-08-28T13:32:41.012Z,28.90
2022-08-28T13:35:13.756Z,28.90
2022-08-28T13:37:48.105Z,29.30
2022-08-28T13:40:56.383Z,28.80
2022-08-28T13:43:17.819Z,28.50
2022-08-28T13:45:50.336Z,28.60
2022-08-28T13:48:25.988Z,28.20
2022-08-28T13:51:10.855Z,28.60
2022-08-28T13:53:46.564Z,28.90
2022-08-28T13:56:18.779Z,29.10
2022-08-28T13:58:57.309Z,29.20
2022-08-28T14:01:49.870Z,29.10
2022-08-28T14:04:22.806Z,29.20
2022-08-28T14:06:55.621Z,29.30
2022-08-28T14:09:27.916Z,29.00
2022-08-28T14:12:00.753Z,28.80
2022-08-28T14:14:33.135Z,28.90
2022-08-28T14:17:06.659Z,28.90
2022-08-28T14:19:38.714Z,28.80
2022-08-28T14:22:11.328Z,29.10
2022-08-28T14:24:43.607Z,28.90
2022-08-28T14:27:15.410Z,28.60
2022-08-28T14:29:49.499Z,28.50
2022-08-28T14:32:22.098Z,28.60
2022-08-28T14:34:54.783Z,28.20
2022-08-28T14:37:28.464Z,28.50
2022-08-28T14:40:01.333Z,29.40
2022-08-28T14:42:33.166Z,28.70
2022-08-28T14:45:06.304Z,28.80
2022-08-28T14:47:39.310Z,28.80
2022-08-28T14:50:12.595Z,28.90
2022-08-28T14:52:44.894Z,29.20
2022-08-28T14:55:23.339Z,30.40
2022-08-28T14:57:55.472Z,28.90
2022-08-28T15:00:27.573Z,29.20
2022-08-28T15:03:00.573Z,28.80
2022-08-28T15:05:34.394Z,28.70
2022-08-28T15:08:12.064Z,28.90
2022-08-28T15:10:45.198Z,28.10
2022-08-28T15:13:17.026Z,28.10
2022-08-28T15:15:50.249Z,28.20
2022-08-28T15:18:22.029Z,28.40
2022-08-28T15:20:54.717Z,28.70
2022-08-28T15:23:27.796Z,28.90
2022-08-28T15:25:59.765Z,29.00
2022-08-28T15:28:32.387Z,28.80
2022-08-28T15:31:05.097Z,28.60
2022-08-28T15:33:36.874Z,28.50
2022-08-28T15:36:10.173Z,28.40
2022-08-28T15:39:00.901Z,28.30
2022-08-28T15:41:33.095Z,27.80
2022-08-28T15:44:05.628Z,27.90
2022-08-28T15:46:38.263Z,27.80
2022-08-28T15:49:10.732Z,27.90
2022-08-28T15:51:43.389Z,27.60
2022-08-28T15:54:17.349Z,27.80
2022-08-28T15:56:50.698Z,28.30
2022-08-28T15:59:25.518Z,28.10
2022-08-28T16:02:20.090Z,29.20
2022-08-28T16:04:54.253Z,28.00
2022-08-28T16:07:26.208Z,28.00
2022-08-28T16:09:59.148Z,28.20
2022-08-28T16:12:32.933Z,28.30
2022-08-28T16:15:05.180Z,28.20
2022-08-28T16:17:37.140Z,28.00
2022-08-28T16:20:12.389Z,28.00
2022-08-28T16:22:45.992Z,28.00
2022-08-28T16:25:18.985Z,28.00
2022-08-28T16:27:50.758Z,27.90
2022-08-28T16:30:24.344Z,27.80
2022-08-28T16:32:57.029Z,27.70
2022-08-28T16:35:29.369Z,27.60
2022-08-28T16:38:02.421Z,27.60
2022-08-28T16:40:35.159Z,27.50
2022-08-28T16:43:06.973Z,28.20
2022-08-28T16:45:44.366Z,28.60
2022-08-28T16:48:16.361Z,27.30
2022-08-28T16:50:49.089Z,28.70
2022-08-28T16:53:24.421Z,27.20
2022-08-28T16:55:59.817Z,27.30
2022-08-28T16:58:32.035Z,27.50
2022-08-28T17:01:06.080Z,27.20
2022-08-28T17:03:39.861Z,27.20
2022-08-28T17:06:16.671Z,27.00
2022-08-28T17:08:49.014Z,27.10
2022-08-28T17:11:27.955Z,26.90
2022-08-28T17:14:00.386Z,26.90
2022-08-28T17:16:33.308Z,26.80
2022-08-28T17:19:05.117Z,26.90
2022-08-28T17:21:56.169Z,28.90
2022-08-28T17:24:28.765Z,26.90
2022-08-28T17:27:05.389Z,27.00
2022-08-28T17:29:40.166Z,26.80
2022-08-28T17:32:14.555Z,26.80
2022-08-28T17:34:47.243Z,26.80
2022-08-28T17:37:20.858Z,26.70
2022-08-28T17:39:54.048Z,26.50
2022-08-28T17:42:26.479Z,27.40
2022-08-28T17:44:58.265Z,26.40
2022-08-28T17:47:32.720Z,26.30
2022-08-28T17:50:05.856Z,26.30
2022-08-28T17:52:38.711Z,26.10
2022-08-28T17:55:10.582Z,26.10
2022-08-28T17:57:43.181Z,26.00
2022-08-28T18:00:18.719Z,26.10
2022-08-28T18:02:51.986Z,26.80
2022-08-28T18:05:25.214Z,27.70
2022-08-28T18:07:57.823Z,25.60
2022-08-28T18:10:33.943Z,26.60
2022-08-28T18:13:06.535Z,25.40
2022-08-28T18:15:39.185Z,25.40
2022-08-28T18:18:15.354Z,25.60
2022-08-28T18:20:47.682Z,25.40
2022-08-28T18:23:19.471Z,25.30
2022-08-28T18:25:53.716Z,25.30
2022-08-28T18:28:26.650Z,25.20
2022-08-28T18:31:01.602Z,25.10
2022-08-28T18:33:35.685Z,25.10
2022-08-28T18:36:10.957Z,24.90
2022-08-28T18:38:47.780Z,24.90
2022-08-28T18:41:20.812Z,24.80
2022-08-28T18:43:56.417Z,24.80
2022-08-28T18:46:31.449Z,24.80
2022-08-28T18:49:04.058Z,24.70
2022-08-28T18:51:37.050Z,25.30
2022-08-28T18:54:09.489Z,24.70
2022-08-28T18:56:42.509Z,24.80
2022-08-28T18:59:15.578Z,24.60
2022-08-28T19:01:48.410Z,24.60
2022-08-28T19:04:20.233Z,24.40
2022-08-28T19:06:52.898Z,24.80
2022-08-28T19:09:31.714Z,24.60
2022-08-28T19:12:06.041Z,24.40
2022-08-28T19:14:38.588Z,24.30
2022-08-28T19:17:10.900Z,25.10
2022-08-28T19:19:43.869Z,25.70
2022-08-28T19:22:16.446Z,25.80
2022-08-28T19:24:49.848Z,24.40
2022-08-28T19:27:23.199Z,25.20
2022-08-28T19:29:55.456Z,26.90
2022-08-28T19:32:27.309Z,24.30
2022-08-28T19:35:03.667Z,24.20
2022-08-28T19:37:38.722Z,24.20
2022-08-28T19:40:14.050Z,24.30
2022-08-28T19:42:46.265Z,24.20
2022-08-28T19:45:19.230Z,24.00
2022-08-28T19:47:52.265Z,24.50
2022-08-28T19:50:24.983Z,25.60
2022-08-28T19:52:56.799Z,24.80
2022-08-28T19:55:29.705Z,23.70
2022-08-28T19:58:05.224Z,23.70
2022-08-28T20:00:38.000Z,23.70
2022-08-28T20:03:10.226Z,23.80
2022-08-28T20:05:42.398Z,26.00
2022-08-28T20:08:15.303Z,23.80
2022-08-28T20:10:47.593Z,23.90
2022-08-28T20:13:19.482Z,24.40
2022-08-28T20:15:55.626Z,24.00
2022-08-28T20:18:27.943Z,24.00
2022-08-28T20:21:00.621Z,24.00
2022-08-28T20:23:32.796Z,24.40
2022-08-28T20:26:05.960Z,23.80
2022-08-28T20:28:37.937Z,23.60
2022-08-28T20:31:14.333Z,23.40
2022-08-28T20:33:47.906Z,23.20
2022-08-28T20:36:22.240Z,23.10
2022-08-28T20:38:54.781Z,23.10
2022-08-28T20:41:43.986Z,23.20
2022-08-28T20:44:23.126Z,23.50
2022-08-28T20:46:58.885Z,23.40
2022-08-28T20:49:34.258Z,23.10
2022-08-28T20:52:11.184Z,22.90
2022-08-28T20:54:44.799Z,23.00
2022-08-28T20:57:20.056Z,23.10
2022-08-28T20:59:54.054Z,23.30
2022-08-28T21:03:06.925Z,23.30
2022-08-28T21:05:47.694Z,22.90
2022-08-28T21:08:21.919Z,23.00
2022-08-28T21:10:54.167Z,22.60
2022-08-28T21:13:26.768Z,22.30
2022-08-28T21:15:59.403Z,22.40
2022-08-28T21:18:31.095Z,22.50
2022-08-28T21:21:07.473Z,22.50
2022-08-28T21:23:42.153Z,22.60
2022-08-28T21:26:15.290Z,22.80
2022-08-28T21:28:47.752Z,22.50
2022-08-28T21:31:21.157Z,22.10
2022-08-28T21:33:54.013Z,22.30
2022-08-28T21:36:26.472Z,22.30
2022-08-28T21:38:59.159Z,22.50
2022-08-28T21:41:31.692Z,22.00
2022-08-28T21:44:04.541Z,22.30
2022-08-28T21:46:37.371Z,22.10
2022-08-28T21:49:09.326Z,22.20
2022-08-28T21:51:42.031Z,22.10
2022-08-28T21:54:14.302Z,23.00
2022-08-28T21:56:46.301Z,22.20
2022-08-28T21:59:20.899Z,22.20
2022-08-28T22:01:55.838Z,22.50
2022-08-28T22:04:42.572Z,22.50
2022-08-28T22:07:14.643Z,22.40
2022-08-28T22:09:47.385Z,22.30
2022-08-28T22:12:19.595Z,22.40
2022-08-28T22:14:51.458Z,22.50
2022-08-28T22:17:24.099Z,22.60
2022-08-28T22:19:56.222Z,22.50
2022-08-28T22:22:46.443Z,22.60
2022-08-28T22:25:19.067Z,22.50
2022-08-28T22:27:50.996Z,22.50
2022-08-28T22:30:24.088Z,22.60
2022-08-28T22:32:56.421Z,22.30
2022-08-28T22:35:29.914Z,22.20
2022-08-28T22:38:02.111Z,22.30
2022-08-28T22:40:34.350Z,22.20
2022-08-28T22:43:07.085Z,22.30
2022-08-28T22:45:40.046Z,22.20
2022-08-28T22:48:16.509Z,21.90
2022-08-28T22:50:50.137Z,22.10
2022-08-28T22:53:22.648Z,21.90
2022-08-28T22:55:54.772Z,22.10
2022-08-28T22:58:29.299Z,22.10
2022-08-28T23:01:23.988Z,21.90
2022-08-28T23:03:56.142Z,22.00
2022-08-28T23:06:32.661Z,22.10
2022-08-28T23:09:04.929Z,21.90
2022-08-28T23:11:37.850Z,21.70
2022-08-28T23:14:09.671Z,21.70
2022-08-28T23:16:42.254Z,21.90
2022-08-28T23:19:15.053Z,22.00
2022-08-28T23:21:47.948Z,21.90
2022-08-28T23:24:20.353Z,21.50
2022-08-28T23:26:52.180Z,21.80
2022-08-28T23:29:24.878Z,21.50
2022-08-28T23:31:56.569Z,21.70
2022-08-28T23:34:30.744Z,21.90
2022-08-28T23:37:03.054Z,21.90
2022-08-28T23:39:35.565Z,22.10
2022-08-28T23:42:07.766Z,22.30
2022-08-28T23:44:40.381Z,22.20
2022-08-28T23:47:12.251Z,22.20
2022-08-28T23:49:45.001Z,22.00
2022-08-28T23:52:17.185Z,22.30
2022-08-28T23:54:49.328Z,22.20
2022-08-28T23:57:21.877Z,22.50
2022-08-28T23:59:54.038Z,22.10
